createdAt,value
2017-05-08T00:04:10.122Z,3.50
2017-05-08T00:06:35.963Z,2.92
2017-05-08T00:09:01.798Z,3.10
2017-05-08T00:23:13.621Z,2.90
2017-05-08T00:43:18.334Z,2.40
2017-05-08T00:45:44.271Z,2.68
2017-05-08T00:48:10.191Z,2.30
2017-05-08T00:50:36.040Z,2.74
2017-05-08T00:53:01.917Z,2.22
2017-05-08T01:04:17.162Z,2.58
2017-05-08T01:06:42.990Z,2.12
2017-05-08T01:09:08.946Z,2.42
2017-05-08T01:23:21.889Z,2.26
2017-05-08T01:43:26.821Z,2.20
2017-05-08T01:45:52.713Z,1.92
2017-05-08T01:48:18.629Z,2.34
2017-05-08T01:50:44.602Z,2.82
2017-05-08T01:53:10.434Z,2.78
2017-05-08T02:04:27.342Z,2.98
2017-05-08T02:06:53.179Z,2.64
2017-05-08T02:09:19.050Z,2.66
2017-05-08T02:23:30.706Z,2.76
2017-05-08T02:28:59.030Z,2.88
2017-05-08T02:31:24.990Z,2.82
2017-05-08T02:33:51.573Z,2.48
2017-05-08T02:36:17.421Z,2.78
2017-05-08T02:38:43.272Z,2.60
2017-05-08T02:44:05.589Z,2.30
2017-05-08T02:46:31.437Z,2.66
2017-05-08T02:48:57.306Z,2.86
2017-05-08T02:51:23.309Z,2.72
2017-05-08T02:53:49.174Z,2.82
2017-05-08T03:05:04.531Z,2.52
2017-05-08T03:07:30.434Z,2.86
2017-05-08T03:09:56.291Z,2.24
2017-05-08T03:24:08.332Z,2.70
2017-05-08T03:32:27.151Z,2.66
2017-05-08T03:34:53.058Z,2.40
2017-05-08T03:37:18.916Z,2.54
2017-05-08T03:39:44.782Z,2.70
2017-05-08T03:45:07.210Z,2.70
2017-05-08T03:47:33.024Z,2.50
2017-05-08T03:49:58.906Z,3.06
2017-05-08T03:52:24.833Z,2.74
2017-05-08T03:54:50.637Z,2.70
2017-05-08T04:06:05.934Z,2.84
2017-05-08T04:08:31.779Z,2.92
2017-05-08T04:10:57.624Z,2.92
2017-05-08T04:25:11.501Z,2.24
2017-05-08T04:45:18.710Z,2.44
2017-05-08T04:47:44.550Z,2.60
2017-05-08T04:50:10.436Z,2.10
2017-05-08T04:52:36.363Z,3.06
2017-05-08T04:55:02.186Z,2.50
2017-05-08T05:06:17.551Z,2.62
2017-05-08T05:08:43.468Z,2.08
2017-05-08T05:11:09.426Z,2.40
2017-05-08T05:25:26.427Z,2.00
2017-05-08T05:27:58.921Z,2.60
2017-05-08T05:30:24.763Z,2.52
2017-05-08T05:32:50.616Z,2.10
2017-05-08T05:35:16.510Z,2.00
2017-05-08T05:37:42.357Z,2.26
2017-05-08T05:40:08.329Z,2.40
2017-05-08T05:45:30.773Z,3.56
2017-05-08T05:47:56.739Z,3.86
2017-05-08T05:50:22.583Z,3.96
2017-05-08T05:52:48.519Z,3.70
2017-05-08T05:55:14.359Z,3.38
2017-05-08T06:06:29.869Z,3.22
2017-05-08T06:08:55.730Z,2.74
2017-05-08T06:11:21.606Z,3.46
2017-05-08T06:25:33.280Z,3.10
2017-05-08T06:31:01.537Z,3.04
2017-05-08T06:33:27.467Z,2.92
2017-05-08T06:35:53.322Z,2.92
2017-05-08T06:38:19.241Z,3.02
2017-05-08T06:40:45.079Z,2.60
2017-05-08T06:46:08.602Z,3.00
2017-05-08T06:48:34.448Z,2.76
2017-05-08T06:51:00.382Z,2.90
2017-05-08T06:53:26.282Z,2.88
2017-05-08T06:55:52.125Z,2.58
2017-05-08T07:07:07.464Z,2.10
2017-05-08T07:09:33.334Z,2.36
2017-05-08T07:11:59.187Z,2.56
2017-05-08T07:26:12.702Z,2.22
2017-05-08T07:46:17.519Z,2.20
2017-05-08T07:48:43.394Z,1.96
2017-05-08T07:51:09.250Z,2.10
2017-05-08T07:53:35.090Z,1.88
2017-05-08T07:56:01.035Z,1.66
2017-05-08T08:07:16.422Z,2.10
2017-05-08T08:09:42.996Z,1.94
2017-05-08T08:12:08.882Z,1.90
2017-05-08T08:26:20.857Z,2.02
2017-05-08T08:46:26.466Z,1.60
2017-05-08T08:48:52.452Z,1.54
2017-05-08T08:51:18.242Z,1.76
2017-05-08T08:53:44.089Z,1.50
2017-05-08T08:56:09.950Z,1.52
2017-05-08T09:07:25.626Z,1.62
2017-05-08T09:09:51.489Z,1.58
2017-05-08T09:12:18.058Z,1.60
2017-05-08T09:26:32.587Z,1.40
2017-05-08T09:29:04.278Z,1.80
2017-05-08T09:31:30.130Z,1.38
2017-05-08T09:33:55.973Z,1.62
2017-05-08T09:36:21.826Z,1.50
2017-05-08T09:38:47.758Z,1.54
2017-05-08T09:41:13.643Z,1.40
2017-05-08T09:46:35.934Z,1.52
2017-05-08T09:49:01.790Z,1.60
2017-05-08T09:51:27.659Z,1.54
2017-05-08T09:53:53.518Z,1.72
2017-05-08T09:56:19.462Z,1.60
2017-05-08T10:07:35.004Z,1.42
2017-05-08T10:10:00.859Z,1.60
2017-05-08T10:12:26.701Z,1.26
2017-05-08T10:26:38.286Z,1.40
2017-05-08T10:35:02.983Z,1.52
2017-05-08T10:37:28.905Z,1.54
2017-05-08T10:39:54.759Z,1.68
2017-05-08T10:42:20.601Z,1.84
2017-05-08T10:47:42.971Z,1.50
2017-05-08T10:50:08.839Z,1.74
2017-05-08T10:52:34.690Z,1.34
2017-05-08T10:55:00.700Z,1.50
2017-05-08T10:57:26.554Z,1.20
2017-05-08T11:08:41.861Z,1.30
2017-05-08T11:11:07.741Z,1.22
2017-05-08T11:28:15.943Z,1.42
2017-05-08T11:30:41.918Z,1.74
2017-05-08T11:33:08.516Z,1.66
2017-05-08T11:35:34.378Z,1.08
2017-05-08T11:38:01.455Z,1.30
2017-05-08T11:40:27.304Z,1.48
2017-05-08T11:42:53.254Z,1.24
2017-05-08T11:48:16.215Z,1.30
2017-05-08T11:50:42.074Z,1.10
2017-05-08T11:53:07.914Z,1.50
2017-05-08T11:55:33.747Z,1.12
2017-05-08T11:57:59.594Z,1.18
2017-05-08T12:09:15.539Z,1.18
2017-05-08T12:11:41.611Z,1.36
2017-05-08T12:20:06.274Z,1.10
2017-05-08T12:22:32.287Z,1.10
2017-05-08T12:24:58.129Z,1.20
2017-05-08T12:27:23.983Z,1.70
2017-05-08T12:29:50.675Z,1.30
2017-05-08T12:32:16.521Z,1.22
2017-05-08T12:34:42.405Z,1.42
2017-05-08T12:37:08.311Z,1.46
2017-05-08T12:39:34.173Z,1.52
2017-05-08T12:42:00.005Z,1.16
2017-05-08T12:50:19.005Z,1.38
2017-05-08T12:52:44.862Z,1.16
2017-05-08T12:55:10.727Z,1.10
2017-05-08T12:57:36.567Z,1.04
2017-05-08T13:09:17.501Z,1.00
2017-05-08T13:11:43.383Z,1.30
2017-05-08T13:23:05.416Z,1.22
2017-05-08T13:25:31.266Z,1.18
2017-05-08T13:27:57.865Z,1.40
2017-05-08T13:30:23.701Z,1.38
2017-05-08T13:32:49.546Z,1.10
2017-05-08T13:35:15.437Z,1.20
2017-05-08T13:37:41.306Z,1.26
2017-05-08T13:42:40.348Z,1.28
2017-05-08T13:45:06.208Z,1.30
2017-05-08T13:47:32.114Z,1.98
2017-05-08T13:49:57.962Z,1.50
2017-05-08T13:52:23.901Z,1.72
2017-05-08T13:54:49.765Z,1.62
2017-05-08T13:57:15.625Z,1.84
2017-05-08T13:59:42.222Z,1.30
2017-05-08T14:02:08.094Z,1.34
2017-05-08T14:04:34.105Z,2.02
2017-05-08T14:06:59.938Z,1.40
2017-05-08T14:09:25.778Z,1.66
2017-05-08T14:11:51.631Z,1.44
2017-05-08T14:14:17.568Z,1.70
2017-05-08T14:16:43.411Z,1.30
2017-05-08T14:19:10.000Z,1.40
2017-05-08T14:21:35.853Z,1.30
2017-05-08T14:24:01.702Z,1.38
2017-05-08T14:26:27.609Z,1.40
2017-05-08T14:28:53.506Z,1.20
2017-05-08T14:31:19.358Z,1.50
2017-05-08T14:33:45.229Z,1.20
2017-05-08T14:36:11.081Z,1.10
2017-05-08T14:38:36.968Z,1.20
2017-05-08T14:41:02.895Z,1.28
2017-05-08T14:43:28.751Z,1.30
2017-05-08T14:45:54.634Z,1.30
2017-05-08T14:48:20.486Z,1.18
2017-05-08T14:50:46.346Z,1.46
2017-05-08T14:53:12.290Z,1.40
2017-05-08T14:55:38.201Z,1.20
2017-05-08T14:58:04.026Z,1.50
2017-05-08T15:00:29.898Z,1.26
2017-05-08T15:02:56.477Z,1.40
2017-05-08T15:05:22.406Z,1.40
2017-05-08T15:07:48.322Z,1.30
2017-05-08T15:10:14.230Z,1.36
2017-05-08T15:12:40.123Z,1.24
2017-05-08T15:15:06.746Z,1.46
2017-05-08T15:17:32.799Z,1.28
2017-05-08T15:19:58.690Z,1.38
2017-05-08T15:22:24.539Z,1.14
2017-05-08T15:24:50.411Z,1.36
2017-05-08T15:27:16.261Z,1.48
2017-05-08T15:29:43.268Z,1.14
2017-05-08T15:32:09.155Z,1.54
2017-05-08T15:34:34.954Z,1.30
2017-05-08T15:37:00.802Z,1.56
2017-05-08T15:39:26.702Z,1.10
2017-05-08T15:41:53.378Z,1.46
2017-05-08T15:44:19.225Z,1.24
2017-05-08T15:46:45.063Z,1.30
2017-05-08T15:49:10.978Z,1.46
2017-05-08T15:51:36.853Z,1.38
2017-05-08T15:54:02.823Z,1.30
2017-05-08T15:56:28.723Z,1.30
2017-05-08T15:58:54.594Z,1.50
2017-05-08T16:01:21.176Z,1.44
2017-05-08T16:03:47.046Z,1.32
2017-05-08T16:06:13.086Z,1.26
2017-05-08T16:08:38.941Z,1.48
2017-05-08T16:11:04.831Z,1.40
2017-05-08T16:13:30.666Z,1.24
2017-05-08T16:15:56.513Z,1.86
2017-05-08T16:18:22.629Z,1.78
2017-05-08T16:20:48.472Z,1.66
2017-05-08T16:23:14.323Z,1.70
2017-05-08T16:25:40.967Z,1.70
2017-05-08T16:28:06.850Z,1.32
2017-05-08T16:30:32.851Z,1.48
2017-05-08T16:32:58.708Z,1.56
2017-05-08T16:35:24.568Z,1.40
2017-05-08T16:37:50.410Z,1.94
2017-05-08T16:40:17.039Z,1.66
2017-05-08T16:42:43.009Z,1.98
2017-05-08T16:45:08.886Z,1.40
2017-05-08T16:47:34.722Z,1.60
2017-05-08T16:50:00.600Z,1.58
2017-05-08T16:52:26.449Z,1.70
2017-05-08T16:54:52.438Z,2.10
2017-05-08T16:57:18.275Z,1.50
2017-05-08T16:59:44.182Z,1.50
2017-05-08T17:02:10.770Z,1.84
2017-05-08T17:04:36.625Z,1.70
2017-05-08T17:07:03.298Z,2.34
2017-05-08T17:09:29.144Z,2.12
2017-05-08T17:11:55.027Z,1.98
2017-05-08T17:14:20.937Z,1.90
2017-05-08T17:16:46.788Z,1.82
2017-05-08T17:19:12.718Z,2.12
2017-05-08T17:21:38.583Z,2.00
2017-05-08T17:24:04.446Z,2.08
2017-05-08T17:26:30.311Z,1.98
2017-05-08T17:28:56.155Z,1.82
2017-05-08T17:31:22.136Z,1.96
2017-05-08T17:33:48.067Z,2.26
2017-05-08T17:36:13.986Z,1.76
2017-05-08T17:38:39.930Z,2.10
2017-05-08T17:41:05.825Z,2.00
2017-05-08T17:43:31.927Z,1.78
2017-05-08T17:45:57.768Z,2.06
2017-05-08T17:48:23.633Z,1.60
2017-05-08T17:50:49.496Z,1.92
2017-05-08T17:53:15.334Z,1.92
2017-05-08T17:55:41.262Z,2.16
2017-05-08T17:58:07.135Z,2.10
2017-05-08T18:00:33.088Z,1.50
2017-05-08T18:02:58.984Z,1.90
2017-05-08T18:05:24.829Z,2.58
2017-05-08T18:07:50.732Z,1.80
2017-05-08T18:10:16.663Z,1.56
2017-05-08T18:12:42.595Z,1.90
2017-05-08T18:15:08.486Z,1.70
2017-05-08T18:17:34.352Z,1.84
2017-05-08T18:20:00.195Z,1.64
2017-05-08T18:22:26.142Z,1.78
2017-05-08T18:24:52.095Z,1.56
2017-05-08T18:27:18.061Z,2.06
2017-05-08T18:29:44.767Z,1.80
2017-05-08T18:32:10.628Z,1.62
2017-05-08T18:34:37.223Z,1.48
2017-05-08T18:37:03.201Z,1.62
2017-05-08T18:39:29.407Z,1.48
2017-05-08T18:41:56.152Z,1.50
2017-05-08T18:44:22.764Z,1.84
2017-05-08T18:46:48.610Z,1.54
2017-05-08T18:49:14.490Z,1.96
2017-05-08T18:51:40.478Z,1.86
2017-05-08T18:54:06.551Z,1.60
2017-05-08T18:56:32.491Z,1.42
2017-05-08T18:58:58.285Z,1.66
2017-05-08T19:01:24.185Z,1.64
2017-05-08T19:03:50.094Z,1.76
2017-05-08T19:06:15.959Z,1.52
2017-05-08T19:08:41.847Z,1.68
2017-05-08T19:11:07.798Z,1.80
2017-05-08T19:13:33.862Z,1.82
2017-05-08T19:15:59.806Z,1.70
2017-05-08T19:18:25.651Z,1.60
2017-05-08T19:20:51.535Z,2.08
2017-05-08T19:23:17.402Z,1.82
2017-05-08T19:25:43.318Z,1.98
2017-05-08T19:28:09.379Z,1.80
2017-05-08T19:30:35.415Z,1.50
2017-05-08T19:33:01.239Z,1.64
2017-05-08T19:35:27.122Z,2.26
2017-05-08T19:37:53.054Z,1.70
2017-05-08T19:40:19.038Z,1.74
2017-05-08T19:42:44.979Z,1.90
2017-05-08T19:45:10.922Z,2.18
2017-05-08T19:47:36.844Z,2.36
2017-05-08T19:50:02.859Z,1.72
2017-05-08T19:52:29.227Z,1.98
2017-05-08T19:54:55.079Z,1.48
2017-05-08T19:57:21.052Z,1.78
2017-05-08T19:59:47.264Z,1.50
2017-05-08T20:02:13.188Z,1.60
2017-05-08T20:04:39.137Z,1.60
2017-05-08T20:07:04.982Z,1.50
2017-05-08T20:12:04.075Z,1.70
2017-05-08T20:14:30.187Z,1.50
2017-05-08T20:16:56.347Z,1.60
2017-05-08T20:19:22.550Z,1.48
2017-05-08T20:21:48.498Z,1.30
2017-05-08T20:24:14.683Z,1.72
2017-05-08T20:26:40.518Z,1.80
2017-05-08T20:29:07.505Z,1.76
2017-05-08T20:31:33.505Z,2.60
2017-05-08T20:33:59.344Z,2.48
2017-05-08T20:36:25.194Z,2.28
2017-05-08T20:38:51.082Z,2.14
2017-05-08T20:41:17.006Z,2.36
2017-05-08T20:43:42.869Z,2.00
2017-05-08T20:46:08.718Z,1.88
2017-05-08T20:48:34.555Z,2.20
2017-05-08T20:51:00.434Z,2.38
2017-05-08T20:53:26.417Z,1.90
2017-05-08T20:55:52.257Z,1.74
2017-05-08T20:58:18.106Z,2.40
2017-05-08T21:00:43.961Z,2.36
2017-05-08T21:03:09.841Z,1.80
2017-05-08T21:05:35.795Z,2.22
2017-05-08T21:08:02.115Z,2.48
2017-05-08T21:10:27.892Z,1.96
2017-05-08T21:12:53.750Z,2.24
2017-05-08T21:15:19.630Z,2.04
2017-05-08T21:17:45.645Z,1.78
2017-05-08T21:20:11.522Z,1.82
2017-05-08T21:22:37.413Z,1.66
2017-05-08T21:25:03.303Z,1.60
2017-05-08T21:27:29.150Z,1.66
2017-05-08T21:29:55.186Z,1.76
2017-05-08T21:32:21.027Z,1.80
2017-05-08T21:34:46.893Z,1.90
2017-05-08T21:37:12.736Z,1.76
2017-05-08T21:39:38.602Z,1.88
2017-05-08T21:42:04.583Z,1.90
2017-05-08T21:44:30.468Z,2.16
2017-05-08T21:46:56.309Z,2.06
2017-05-08T21:49:22.285Z,1.40
2017-05-08T21:51:48.154Z,1.92
2017-05-08T21:54:14.123Z,2.02
2017-05-08T21:56:39.954Z,1.64
2017-05-08T21:59:05.800Z,1.50
2017-05-08T22:01:31.660Z,1.32
2017-05-08T22:03:57.627Z,1.82
2017-05-08T22:06:23.511Z,2.18
2017-05-08T22:08:49.357Z,1.70
2017-05-08T22:11:15.239Z,1.62
2017-05-08T22:13:41.103Z,1.70
2017-05-08T22:16:06.931Z,2.12
2017-05-08T22:18:32.779Z,1.60
2017-05-08T22:20:58.699Z,1.68
2017-05-08T22:23:24.594Z,1.78
2017-05-08T22:25:50.439Z,1.34
2017-05-08T22:28:16.281Z,1.30
2017-05-08T22:30:42.141Z,1.60
2017-05-08T22:33:08.142Z,1.48
2017-05-08T22:35:33.947Z,1.50
2017-05-08T22:37:59.806Z,1.32
2017-05-08T22:40:25.652Z,1.30
2017-05-08T22:42:51.526Z,1.40
2017-05-08T22:45:17.467Z,1.44
2017-05-08T22:47:43.316Z,1.48
2017-05-08T22:50:09.262Z,1.60
2017-05-08T22:52:35.099Z,1.48
2017-05-08T22:55:00.952Z,1.56
2017-05-08T22:57:26.881Z,1.50
2017-05-08T22:59:52.727Z,1.52
2017-05-08T23:02:18.609Z,1.80
2017-05-08T23:04:44.450Z,1.70
2017-05-08T23:07:10.301Z,1.30
2017-05-08T23:09:36.269Z,1.38
2017-05-08T23:12:02.099Z,1.76
2017-05-08T23:14:27.946Z,1.48
2017-05-08T23:16:53.787Z,1.66
2017-05-08T23:19:19.658Z,1.46
2017-05-08T23:21:45.634Z,1.12
2017-05-08T23:24:11.466Z,1.40
2017-05-08T23:26:37.344Z,1.40
2017-05-08T23:29:03.189Z,1.20
2017-05-08T23:31:29.041Z,1.50
2017-05-08T23:33:54.977Z,1.34
2017-05-08T23:36:20.842Z,1.30
2017-05-08T23:38:46.725Z,1.48
2017-05-08T23:41:12.562Z,1.60
2017-05-08T23:43:38.412Z,1.40
2017-05-08T23:46:04.412Z,1.12
2017-05-08T23:48:30.290Z,1.50
2017-05-08T23:50:56.107Z,1.40
2017-05-08T23:53:21.949Z,1.48
2017-05-08T23:55:47.962Z,1.12
2017-05-08T23:58:13.905Z,1.36
